^^
Peaceful Hills Weather Station Historical Data
 
Daily Summary for August 05, 2021 Units:  English    Metric   Both
Daily Weekly Monthly Yearly
  Current: High: Low: Average:
Temperature: 81.1 °F 87.7 °F 64.6 °F 75.9 °F
Dew Point: 70.4 °F 70.9 °F 61.9 °F 65.9 °F
Humidity: 70% 91% 50.2% 74%
Wind Speed: 0mph 6.4mph 0mph 1.7mph
Wind Gust: 0mph 14mph - -
WindCalm - - SSE
Pressure: 30.04 in 30.13 in 30.03 in -
Precipitation: 0.00 in      
 
 
Tabular Data for August 05, 2021
Time Temperature Dew Point Pressure Wind Wind Speed Wind Gust Humidity Rainfall Rate (Hourly)
00:04 68.5 °F 65.4 °F 30.09 in Calm   2 mph 90% 0.00 in
00:09 68.5 °F 65.4 °F 30.09 in Calm     90% 0.00 in
00:14 68.3 °F 65.3 °F 30.08 in Calm     90% 0.00 in
00:19 68.2 °F 65.2 °F 30.09 in Calm     90% 0.00 in
00:24 68.1 °F 65.1 °F 30.08 in Calm     90% 0.00 in
00:29 68 °F 65 °F 30.08 in Calm     90% 0.00 in
00:34 67.9 °F 64.9 °F 30.08 in Calm     90% 0.00 in
00:39 67.9 °F 64.9 °F 30.08 in Calm     90% 0.00 in
00:44 67.9 °F 64.9 °F 30.08 in Calm     90% 0.00 in
00:49 67.8 °F 64.8 °F 30.08 in Calm     90% 0.00 in
00:54 67.7 °F 64.7 °F 30.08 in Calm     90% 0.00 in
00:59 67.7 °F 64.7 °F 30.08 in Calm     90% 0.00 in
01:04 67.6 °F 64.7 °F 30.08 in Calm     90.4% 0.00 in
01:09 67.5 °F 64.5 °F 30.08 in Calm     90% 0.00 in
01:14 67.5 °F 64.5 °F 30.08 in Calm     90% 0.00 in
01:19 67.4 °F 64.4 °F 30.08 in Calm     90% 0.00 in
01:24 67.3 °F 64.3 °F 30.08 in Calm     90% 0.00 in
01:29 67.2 °F 64.5 °F 30.08 in Calm     90.8% 0.00 in
01:34 67.2 °F 64.5 °F 30.08 in Calm     91% 0.00 in
01:39 67.1 °F 64.4 °F 30.08 in Calm     91% 0.00 in
01:44 67 °F 64.3 °F 30.08 in Calm     91% 0.00 in
01:49 67 °F 64.3 °F 30.08 in Calm     91% 0.00 in
01:54 66.9 °F 64.2 °F 30.08 in Calm     91% 0.00 in
01:59 66.8 °F 64.1 °F 30.08 in Calm     91% 0.00 in
02:04 66.8 °F 64.1 °F 30.08 in Calm     91% 0.00 in
02:09 66.7 °F 64 °F 30.08 in Calm   2 mph 91% 0.00 in
02:14 66.6 °F 63.9 °F 30.08 in Calm   2 mph 91% 0.00 in
02:19 66.5 °F 63.8 °F 30.08 in Calm     91% 0.00 in
02:24 66.4 °F 63.7 °F 30.07 in Calm   2 mph 91% 0.00 in
02:29 66.3 °F 63.6 °F 30.07 in Calm     91% 0.00 in
02:34 66.2 °F 63.5 °F 30.07 in Calm     91% 0.00 in
02:39 66.1 °F 63.4 °F 30.07 in Calm     91% 0.00 in
02:44 65.9 °F 63.2 °F 30.07 in Calm     91% 0.00 in
02:49 65.9 °F 63.2 °F 30.07 in Calm     91% 0.00 in
02:54 65.9 °F 63.2 °F 30.07 in South 0.4 mph 2 mph 91% 0.00 in
02:59 65.9 °F 63.2 °F 30.08 in Calm   2 mph 91% 0.00 in
03:04 65.8 °F 63.1 °F 30.08 in Calm     91% 0.00 in
03:09 65.8 °F 63.1 °F 30.08 in Calm     91% 0.00 in
03:14 65.7 °F 63 °F 30.08 in Calm     91% 0.00 in
03:19 65.6 °F 62.9 °F 30.08 in Calm     91% 0.00 in
03:24 65.6 °F 62.9 °F 30.08 in Calm     91% 0.00 in
03:29 65.5 °F 62.8 °F 30.08 in Calm     91% 0.00 in
03:34 65.5 °F 62.8 °F 30.08 in Calm     91% 0.00 in
03:39 65.5 °F 62.8 °F 30.08 in Calm     91% 0.00 in
03:44 65.4 °F 62.7 °F 30.08 in Calm     91% 0.00 in
03:49 65.3 °F 62.6 °F 30.08 in Calm     91% 0.00 in
03:54 65.2 °F 62.5 °F 30.08 in Calm     91% 0.00 in
03:59 65.1 °F 62.4 °F 30.08 in Calm     91% 0.00 in
04:04 65.1 °F 62.4 °F 30.08 in Calm     91% 0.00 in
04:09 65 °F 62.3 °F 30.08 in Calm     91% 0.00 in
04:14 65.1 °F 62.4 °F 30.08 in Calm     91% 0.00 in
04:19 65.2 °F 62.5 °F 30.08 in Calm     91% 0.00 in
04:24 65.2 °F 62.5 °F 30.08 in Calm     91% 0.00 in
04:29 65.2 °F 62.5 °F 30.08 in Calm     91% 0.00 in
04:34 65.2 °F 62.5 °F 30.08 in Calm     91% 0.00 in
04:39 65.2 °F 62.5 °F 30.08 in Calm     91% 0.00 in
04:44 65.2 °F 62.5 °F 30.08 in Calm     91% 0.00 in
04:49 65.3 °F 62.6 °F 30.08 in Calm     91% 0.00 in
04:54 65.3 °F 62.6 °F 30.09 in Calm     91% 0.00 in
04:59 65.3 °F 62.6 °F 30.09 in Calm     91% 0.00 in
05:04 65.3 °F 62.6 °F 30.09 in Calm     91% 0.00 in
05:09 65.2 °F 62.5 °F 30.09 in Calm     91% 0.00 in
05:14 65.2 °F 62.5 °F 30.09 in Calm     91% 0.00 in
05:19 65.2 °F 62.5 °F 30.09 in Calm     91% 0.00 in
05:24 65.1 °F 62.4 °F 30.09 in Calm     91% 0.00 in
05:29 65.1 °F 62.4 °F 30.09 in Calm     91% 0.00 in
05:34 65 °F 62.3 °F 30.10 in Calm     91% 0.00 in
05:39 65 °F 62.3 °F 30.10 in Calm     91% 0.00 in
05:44 64.9 °F 62.2 °F 30.10 in Calm     91% 0.00 in
05:49 64.8 °F 62.1 °F 30.10 in Calm     91% 0.00 in
05:54 64.8 °F 62.1 °F 30.10 in Calm     91% 0.00 in
05:59 64.8 °F 62.1 °F 30.10 in Calm     91% 0.00 in
06:04 64.8 °F 62.1 °F 30.10 in Calm     91% 0.00 in
06:09 64.8 °F 62.1 °F 30.10 in Calm     91% 0.00 in
06:14 64.8 °F 62.1 °F 30.10 in Calm     91% 0.00 in
06:19 64.8 °F 62.1 °F 30.11 in Calm     91% 0.00 in
06:24 64.8 °F 62.1 °F 30.11 in Calm     91% 0.00 in
06:29 64.7 °F 62 °F 30.11 in Calm     91% 0.00 in
06:34 64.7 °F 62 °F 30.11 in Calm     91% 0.00 in
06:39 64.7 °F 62 °F 30.12 in Calm     91% 0.00 in
06:44 64.6 °F 61.9 °F 30.12 in Calm     91% 0.00 in
06:49 64.6 °F 61.9 °F 30.12 in Calm     91% 0.00 in
06:54 64.7 °F 62 °F 30.12 in Calm     91% 0.00 in
06:59 64.8 °F 62.1 °F 30.12 in Calm     91% 0.00 in
07:04 64.8 °F 62.1 °F 30.12 in Calm     91% 0.00 in
07:09 64.9 °F 62.2 °F 30.12 in Calm     91% 0.00 in
07:14 64.9 °F 62.2 °F 30.12 in Calm     91% 0.00 in
07:19 65.1 °F 62.4 °F 30.12 in Calm     91% 0.00 in
07:24 65.2 °F 62.5 °F 30.12 in Calm     91% 0.00 in
07:29 65.3 °F 62.6 °F 30.12 in Calm     91% 0.00 in
07:34 65.4 °F 62.7 °F 30.13 in Calm   2 mph 91% 0.00 in
07:39 65.5 °F 62.8 °F 30.13 in Calm     91% 0.00 in
07:44 65.6 °F 62.9 °F 30.12 in Calm     91% 0.00 in
07:49 65.7 °F 63 °F 30.12 in Calm     91% 0.00 in
07:54 65.9 °F 63.2 °F 30.12 in Calm     91% 0.00 in
07:59 65.9 °F 63.2 °F 30.12 in South 0.4 mph 2 mph 91% 0.00 in
08:04 66.1 °F 63.4 °F 30.12 in South 0.4 mph 2 mph 91% 0.00 in
08:09 66.4 °F 63.7 °F 30.13 in South 1.2 mph 4 mph 91% 0.00 in
08:14 66.7 °F 64 °F 30.13 in Calm   2 mph 91% 0.00 in
08:19 66.9 °F 64.2 °F 30.13 in Calm     91% 0.00 in
08:24 67.3 °F 64.6 °F 30.13 in South 0.4 mph 2 mph 91% 0.00 in
08:29 67.6 °F 64.9 °F 30.13 in South 0.4 mph 2 mph 91% 0.00 in
08:34 67.7 °F 65 °F 30.13 in Calm   2 mph 91% 0.00 in
08:39 67.8 °F 65.1 °F 30.13 in South 0.4 mph 2 mph 91% 0.00 in
08:44 68.2 °F 65.5 °F 30.13 in South 0.4 mph 2 mph 91% 0.00 in
08:49 68.6 °F 65.9 °F 30.13 in South 1.2 mph 4 mph 91% 0.00 in
08:54 69.1 °F 66.4 °F 30.13 in South 1.2 mph 4 mph 91% 0.00 in
08:59 69.8 °F 67.1 °F 30.13 in ESE 0.8 mph 2 mph 91% 0.00 in
09:04 70.4 °F 67.3 °F 30.13 in Calm   2 mph 90% 0.00 in
09:09 70.9 °F 67.8 °F 30.13 in Calm   2 mph 90% 0.00 in
09:14 71.4 °F 68 °F 30.13 in NE 1.2 mph 4 mph 89% 0.00 in
09:19 71.7 °F 67.8 °F 30.13 in NE 1.2 mph 4 mph 87.6% 0.00 in
09:24 72.1 °F 68 °F 30.13 in NE 1.2 mph 4 mph 87% 0.00 in
09:29 72.6 °F 68 °F 30.13 in NE 0.4 mph 4 mph 85.4% 0.00 in
09:34 73.3 °F 67.8 °F 30.13 in NE 0.4 mph 4 mph 83.2% 0.00 in
09:39 74.2 °F 68.8 °F 30.13 in ENE 1.2 mph 4 mph 83.4% 0.00 in
09:44 75 °F 68.6 °F 30.13 in ENE 2.4 mph 4 mph 80.4% 0.00 in
09:49 76 °F 68.5 °F 30.13 in East 0.8 mph 4 mph 77.8% 0.00 in
09:54 76.5 °F 69.2 °F 30.13 in East 0.8 mph 4 mph 78% 0.00 in
09:59 77.1 °F 68.1 °F 30.12 in SE 3.8 mph 7 mph 74% 0.00 in
10:04 77.5 °F 67.3 °F 30.12 in SE 2.4 mph 5 mph 70.8% 0.00 in
10:09 78.1 °F 67.5 °F 30.13 in SE 3.6 mph 7 mph 69.8% 0.00 in
10:14 78.5 °F 67.4 °F 30.13 in ESE 3 mph 9 mph 68.6% 0.00 in
10:19 78.7 °F 67 °F 30.12 in SSE 4.8 mph 9 mph 67.6% 0.00 in
10:24 78.8 °F 67.4 °F 30.13 in SSE 4.2 mph 7 mph 68% 0.00 in
10:29 79.3 °F 67.6 °F 30.13 in SSE 1.6 mph 7 mph 67.6% 0.00 in
10:34 79.8 °F 65.9 °F 30.13 in ESE 4.4 mph 7 mph 62.6% 0.00 in
10:39 79.9 °F 65.2 °F 30.12 in ESE 4.2 mph 7 mph 61% 0.00 in
10:44 80.2 °F 65.7 °F 30.12 in SE 3.4 mph 7 mph 61.4% 0.00 in
10:49 80.6 °F 65.8 °F 30.12 in SSE 0.8 mph 7 mph 60.8% 0.00 in
10:54 81.1 °F 66.3 °F 30.12 in South 1.6 mph 5 mph 60.8% 0.00 in
10:59 81.6 °F 67.6 °F 30.12 in WSW 1.2 mph 4 mph 62.8% 0.00 in
11:04 82.1 °F 66.7 °F 30.12 in SE 2.4 mph 5 mph 59.8% 0.00 in
11:09 82.3 °F 66.5 °F 30.12 in South 2.4 mph 7 mph 59% 0.00 in
11:14 82.3 °F 67.1 °F 30.12 in East 3.4 mph 7 mph 60.2% 0.00 in
11:19 82.5 °F 67 °F 30.12 in ESE 4.8 mph 9 mph 59.6% 0.00 in
11:24 82.6 °F 66.6 °F 30.12 in ESE 4 mph 9 mph 58.6% 0.00 in
11:29 82.7 °F 67.1 °F 30.12 in SSE 3.4 mph 9 mph 59.4% 0.00 in
11:34 82.9 °F 66.8 °F 30.12 in SE 3.8 mph 9 mph 58.4% 0.00 in
11:39 83 °F 67.3 °F 30.12 in SSE 2.8 mph 7 mph 59.2% 0.00 in
11:44 83.1 °F 66.8 °F 30.12 in SE 4.2 mph 10 mph 58% 0.00 in
11:49 83.2 °F 67.1 °F 30.12 in ESE 3 mph 7 mph 58.4% 0.00 in
11:54 83.4 °F 66.5 °F 30.12 in ESE 5.2 mph 7 mph 56.8% 0.00 in
11:59 83.4 °F 65.9 °F 30.11 in East 2 mph 7 mph 55.6% 0.00 in
12:04 83.8 °F 67.6 °F 30.11 in SSE 2.8 mph 7 mph 58.2% 0.00 in
12:09 84.2 °F 67.3 °F 30.11 in SSW 2.4 mph 7 mph 57% 0.00 in
12:14 84 °F 66.1 °F 30.11 in ESE 4.2 mph 9 mph 55% 0.00 in
12:19 83.7 °F 66.8 °F 30.11 in SW 2.4 mph 9 mph 57% 0.00 in
12:24 83.6 °F 68.1 °F 30.11 in SW 3.2 mph 5 mph 59.6% 0.00 in
12:29 83.8 °F 67.4 °F 30.10 in SW 2 mph 5 mph 57.8% 0.00 in
12:34 84.6 °F 68.3 °F 30.10 in SW 2 mph 5 mph 58.2% 0.00 in
12:39 85 °F 68.1 °F 30.10 in SW 3.4 mph 5 mph 57.2% 0.00 in
12:44 85.2 °F 67.4 °F 30.10 in SSE 4.2 mph 7 mph 55.4% 0.00 in
12:49 85.4 °F 67.5 °F 30.10 in SE 6 mph 9 mph 55.2% 0.00 in
12:54 85.3 °F 66.8 °F 30.10 in SSE 3.6 mph 10 mph 54% 0.00 in
12:59 85.4 °F 66.7 °F 30.10 in South 4.8 mph 7 mph 53.6% 0.00 in
13:04 85.6 °F 67 °F 30.10 in SSE 4.4 mph 9 mph 53.8% 0.00 in
13:09 85.8 °F 67 °F 30.09 in SSW 3.4 mph 9 mph 53.6% 0.00 in
13:14 86.1 °F 67.4 °F 30.09 in SW 3.8 mph 9 mph 53.8% 0.00 in
13:19 86.1 °F 67.2 °F 30.09 in North 3.2 mph 7 mph 53.4% 0.00 in
13:24 86 °F 67.7 °F 30.09 in SW 1.6 mph 5 mph 54.4% 0.00 in
13:29 86.2 °F 68.1 °F 30.09 in SE 5.2 mph 9 mph 55% 0.00 in
13:34 86.2 °F 67.1 °F 30.09 in ESE 3.8 mph 10 mph 53% 0.00 in
13:39 86.4 °F 67.4 °F 30.09 in South 2.2 mph 7 mph 53.2% 0.00 in
13:44 86.5 °F 67.7 °F 30.08 in East 3.4 mph 9 mph 53.6% 0.00 in
13:49 86.6 °F 67 °F 30.08 in South 4.4 mph 7 mph 52.4% 0.00 in
13:54 86.3 °F 66.8 °F 30.08 in SW 4.2 mph 9 mph 52.4% 0.00 in
13:59 86.4 °F 66.5 °F 30.08 in SSE 2.2 mph 9 mph 51.6% 0.00 in
14:04 86.7 °F 66.9 °F 30.07 in SE 4.2 mph 7 mph 51.8% 0.00 in
14:09 86.8 °F 66.7 °F 30.07 in SSW 3 mph 7 mph 51.4% 0.00 in
14:14 87 °F 67.9 °F 30.07 in South 2.4 mph 5 mph 53.2% 0.00 in
14:19 87.2 °F 68.6 °F 30.06 in SSW 2.2 mph 7 mph 54.2% 0.00 in
14:24 87.4 °F 67.7 °F 30.06 in SSW 2.4 mph 7 mph 52.2% 0.00 in
14:29 87.7 °F 68.3 °F 30.06 in SSE 3.6 mph 5 mph 52.6% 0.00 in
14:34 87.5 °F 66.9 °F 30.06 in SSW 3.6 mph 7 mph 50.4% 0.00 in
14:39 87.2 °F 67.5 °F 30.06 in SSW 2.8 mph 7 mph 52.2% 0.00 in
14:44 87.5 °F 67.7 °F 30.06 in ESE 4.2 mph 9 mph 52% 0.00 in
14:49 87.4 °F 66.6 °F 30.06 in ESE 6.4 mph 9 mph 50.2% 0.00 in
14:54 87.2 °F 66.9 °F 30.06 in SSE 4.6 mph 9 mph 51.2% 0.00 in
14:59 87.3 °F 66.9 °F 30.05 in SSW 4.2 mph 9 mph 50.8% 0.00 in
15:04 87.2 °F 66.8 °F 30.05 in SSW 3 mph 9 mph 50.8% 0.00 in
15:09 87.2 °F 67.5 °F 30.05 in South 2.4 mph 5 mph 52.2% 0.00 in
15:14 87.6 °F 68.1 °F 30.05 in ESE 0.8 mph 7 mph 52.6% 0.00 in
15:19 87.7 °F 68.2 °F 30.05 in ESE 4.4 mph 10 mph 52.6% 0.00 in
15:24 87.3 °F 67.8 °F 30.05 in ESE 2.2 mph 10 mph 52.4% 0.00 in
15:29 87.3 °F 67.5 °F 30.05 in ESE 2.8 mph 5 mph 52% 0.00 in
15:34 87.4 °F 68.2 °F 30.04 in ESE 1.8 mph 7 mph 53% 0.00 in
15:39 87.5 °F 68.3 °F 30.04 in SSE 3.4 mph 7 mph 53% 0.00 in
15:44 87.3 °F 68.7 °F 30.04 in SSE 4.4 mph 7 mph 54.2% 0.00 in
15:49 87.1 °F 68.3 °F 30.04 in East 2.4 mph 5 mph 53.8% 0.00 in
15:54 87.3 °F 68.7 °F 30.04 in ESE 2.2 mph 5 mph 54.2% 0.00 in
15:59 87.3 °F 68.7 °F 30.04 in ESE 4.4 mph 10 mph 54% 0.00 in
16:04 86.8 °F 68 °F 30.04 in South 5.4 mph 10 mph 53.8% 0.00 in
16:09 86.6 °F 68.5 °F 30.04 in SSE 5 mph 9 mph 55% 0.00 in
16:14 86.8 °F 68.9 °F 30.04 in SSE 5 mph 9 mph 55.4% 0.00 in
16:19 86.8 °F 68 °F 30.04 in SSE 3.2 mph 10 mph 53.8% 0.00 in
16:24 86.8 °F 68.1 °F 30.03 in SSW 4.4 mph 5 mph 53.8% 0.00 in
16:29 87 °F 67.9 °F 30.03 in SSW 4.2 mph 7 mph 53.2% 0.00 in
16:34 86.9 °F 68.4 °F 30.03 in South 5.2 mph 12 mph 54.4% 0.00 in
16:39 86.6 °F 68.2 °F 30.03 in ESE 5.6 mph 12 mph 54.4% 0.00 in
16:44 86.5 °F 68.1 °F 30.03 in ESE 4 mph 9 mph 54.4% 0.00 in
16:49 86.8 °F 68.7 °F 30.03 in SE 3.2 mph 5 mph 55% 0.00 in
16:54 87 °F 68 °F 30.03 in ESE 5 mph 14 mph 53.4% 0.00 in
16:59 86.9 °F 68.2 °F 30.03 in SE 3.4 mph 14 mph 53.8% 0.00 in
17:04 86.8 °F 68.1 °F 30.03 in ESE 5.8 mph 9 mph 53.8% 0.00 in
17:09 86.5 °F 68.1 °F 30.03 in SSE 4.8 mph 9 mph 54.4% 0.00 in
17:14 86.5 °F 68.7 °F 30.03 in SE 3.4 mph 9 mph 55.6% 0.00 in
17:19 86.7 °F 68.4 °F 30.03 in ESE 6.4 mph 12 mph 54.6% 0.00 in
17:24 86.5 °F 68.2 °F 30.03 in SE 3 mph 12 mph 54.6% 0.00 in
17:29 86.2 °F 68.6 °F 30.03 in SE 4.8 mph 12 mph 55.8% 0.00 in
17:34 86.1 °F 68.5 °F 30.03 in SE 4.6 mph 9 mph 55.8% 0.00 in
17:39 86.1 °F 68.8 °F 30.03 in SE 4.8 mph 7 mph 56.4% 0.00 in
17:44 86 °F 68.5 °F 30.03 in SE 5 mph 10 mph 56% 0.00 in
17:49 86.1 °F 68.7 °F 30.03 in SSE 5.2 mph 9 mph 56.2% 0.00 in
17:54 86.1 °F 68.9 °F 30.04 in East 3.2 mph 7 mph 56.6% 0.00 in
17:59 86 °F 68.8 °F 30.03 in East 4.2 mph 7 mph 56.6% 0.00 in
18:04 86 °F 68.7 °F 30.03 in ESE 2 mph 7 mph 56.4% 0.00 in
18:09 86.1 °F 69.2 °F 30.03 in SE 3.4 mph 7 mph 57.2% 0.00 in
18:14 85.9 °F 69 °F 30.03 in SSE 4 mph 9 mph 57.2% 0.00 in
18:19 85.6 °F 68.9 °F 30.03 in ESE 3.6 mph 9 mph 57.6% 0.00 in
18:24 85.4 °F 69.1 °F 30.03 in SSE 2.4 mph 9 mph 58.4% 0.00 in
18:29 85.3 °F 69.2 °F 30.04 in ESE 3.4 mph 7 mph 58.8% 0.00 in
18:34 85.1 °F 69.2 °F 30.03 in SSE 4.2 mph 7 mph 59% 0.00 in
18:39 84.9 °F 69.5 °F 30.03 in ESE 2.4 mph 9 mph 60% 0.00 in
18:44 84.8 °F 69.8 °F 30.03 in SE 2.4 mph 9 mph 60.8% 0.00 in
18:49 84.5 °F 69.7 °F 30.03 in SSE 2.4 mph 5 mph 61.2% 0.00 in
18:54 84.3 °F 69.5 °F 30.03 in SE 1.2 mph 5 mph 61.2% 0.00 in
18:59 84.1 °F 69.7 °F 30.04 in SE 1.6 mph 5 mph 62% 0.00 in
19:04 83.8 °F 69.7 °F 30.04 in SE 2 mph 5 mph 62.6% 0.00 in
19:09 83.6 °F 69.7 °F 30.04 in SE 2 mph 4 mph 63% 0.00 in
19:14 83.4 °F 69.8 °F 30.04 in Calm   4 mph 63.8% 0.00 in
19:19 83.2 °F 70.1 °F 30.04 in Calm   2 mph 64.8% 0.00 in
19:24 83 °F 70.2 °F 30.04 in SE 1.6 mph 5 mph 65.4% 0.00 in
19:29 82.8 °F 70.5 °F 30.04 in SE 0.4 mph 2 mph 66.4% 0.00 in
19:34 82.7 °F 70.6 °F 30.04 in Calm   2 mph 66.8% 0.00 in
19:39 82.5 °F 70.9 °F 30.04 in Calm   2 mph 68% 0.00 in
19:44 82.1 °F 70.4 °F 30.04 in SE 0.8 mph 2 mph 67.6% 0.00 in
19:49 81.9 °F 70.4 °F 30.04 in Calm     68.2% 0.00 in
19:54 81.7 °F 70.9 °F 30.04 in Calm     69.8% 0.00 in
19:59 81.4 °F 70.5 °F 30.04 in SE 0.4 mph 4 mph 69.6% 0.00 in
20:04 81.1 °F 70.4 °F 30.04 in Calm     70% 0.00 in
Compliments of Weather Underground - 4 mb